sensor_id;sensor_type;location;lat;lon;timestamp;pressure;altitude;pressure_sealevel;temperature;humidity
32131;BME280;18639;50.716;7.086;2023-02-22T00:00:16;100336.75;;;5.26;100.00
32131;BME280;18639;50.716;7.086;2023-02-22T00:02:47;100317.41;;;5.19;100.00
32131;BME280;18639;50.716;7.086;2023-02-22T00:05:14;100315.63;;;5.21;100.00
32131;BME280;18639;50.716;7.086;2023-02-22T00:07:42;100279.16;;;4.96;100.00
32131;BME280;18639;50.716;7.086;2023-02-22T00:10:09;100327.13;;;5.31;100.00
32131;BME280;18639;50.716;7.086;2023-02-22T00:12:40;100316.09;;;5.29;100.00
32131;BME280;18639;50.716;7.086;2023-02-22T00:15:07;100322.63;;;5.36;100.00
32131;BME280;18639;50.716;7.086;2023-02-22T00:17:32;100309.44;;;5.25;100.00
32131;BME280;18639;50.716;7.086;2023-02-22T00:19:58;100290.00;;;5.21;100.00
32131;BME280;18639;50.716;7.086;2023-02-22T00:22:23;100310.66;;;5.37;100.00
32131;BME280;18639;50.716;7.086;2023-02-22T00:24:48;100310.59;;;5.38;100.00
32131;BME280;18639;50.716;7.086;2023-02-22T00:27:14;100285.50;;;5.26;100.00
32131;BME280;18639;50.716;7.086;2023-02-22T00:29:43;100299.50;;;5.38;100.00
32131;BME280;18639;50.716;7.086;2023-02-22T00:32:09;100299.31;;;5.42;100.00
32131;BME280;18639;50.716;7.086;2023-02-22T00:34:34;100291.00;;;5.37;100.00
32131;BME280;18639;50.716;7.086;2023-02-22T00:36:59;100285.19;;;5.34;100.00
32131;BME280;18639;50.716;7.086;2023-02-22T00:39:27;100293.63;;;5.36;100.00
32131;BME280;18639;50.716;7.086;2023-02-22T00:41:53;100267.50;;;5.28;100.00
32131;BME280;18639;50.716;7.086;2023-02-22T00:44:18;100267.63;;;5.25;100.00
32131;BME280;18639;50.716;7.086;2023-02-22T00:46:43;100262.44;;;5.26;100.00
32131;BME280;18639;50.716;7.086;2023-02-22T00:49:08;100294.03;;;5.45;100.00
32131;BME280;18639;50.716;7.086;2023-02-22T00:51:34;100272.28;;;5.35;100.00
32131;BME280;18639;50.716;7.086;2023-02-22T00:53:59;100289.47;;;5.52;100.00
32131;BME280;18639;50.716;7.086;2023-02-22T00:56:24;100278.38;;;5.51;100.00
32131;BME280;18639;50.716;7.086;2023-02-22T00:58:50;100268.41;;;5.45;100.00
32131;BME280;18639;50.716;7.086;2023-02-22T01:01:15;100276.44;;;5.57;100.00
32131;BME280;18639;50.716;7.086;2023-02-22T01:03:40;100268.13;;;5.51;100.00
32131;BME280;18639;50.716;7.086;2023-02-22T01:06:06;100263.84;;;5.52;100.00
32131;BME280;18639;50.716;7.086;2023-02-22T01:08:31;100280.47;;;5.62;100.00
32131;BME280;18639;50.716;7.086;2023-02-22T01:10:56;100285.59;;;5.62;100.00
32131;BME280;18639;50.716;7.086;2023-02-22T01:13:22;100273.81;;;5.58;100.00
32131;BME280;18639;50.716;7.086;2023-02-22T01:15:47;100277.34;;;5.56;100.00
32131;BME280;18639;50.716;7.086;2023-02-22T01:18:13;100264.06;;;5.47;100.00
32131;BME280;18639;50.716;7.086;2023-02-22T01:20:41;100229.22;;;5.25;100.00
32131;BME280;18639;50.716;7.086;2023-02-22T01:23:11;100244.47;;;5.28;100.00
32131;BME280;18639;50.716;7.086;2023-02-22T01:25:36;100248.47;;;5.33;100.00
32131;BME280;18639;50.716;7.086;2023-02-22T01:28:03;100256.91;;;5.35;100.00
32131;BME280;18639;50.716;7.086;2023-02-22T01:30:31;100255.06;;;5.39;100.00
32131;BME280;18639;50.716;7.086;2023-02-22T01:32:57;100255.13;;;5.37;100.00
32131;BME280;18639;50.716;7.086;2023-02-22T01:35:27;100254.13;;;5.40;100.00
32131;BME280;18639;50.716;7.086;2023-02-22T01:37:52;100242.63;;;5.30;100.00
32131;BME280;18639;50.716;7.086;2023-02-22T01:40:29;100254.06;;;5.41;100.00
32131;BME280;18639;50.716;7.086;2023-02-22T01:43:00;100244.25;;;5.32;100.00
32131;BME280;18639;50.716;7.086;2023-02-22T01:48:01;100230.03;;;5.25;100.00
32131;BME280;18639;50.716;7.086;2023-02-22T01:50:31;100211.41;;;5.03;100.00
32131;BME280;18639;50.716;7.086;2023-02-22T01:52:57;100230.94;;;5.24;100.00
32131;BME280;18639;50.716;7.086;2023-02-22T01:55:22;100197.34;;;4.93;100.00
32131;BME280;18639;50.716;7.086;2023-02-22T01:57:49;100231.28;;;5.17;100.00
32131;BME280;18639;50.716;7.086;2023-02-22T02:00:17;100239.53;;;5.23;100.00
32131;BME280;18639;50.716;7.086;2023-02-22T02:02:48;100223.63;;;5.17;100.00
32131;BME280;18639;50.716;7.086;2023-02-22T02:05:16;100223.66;;;5.15;100.00
32131;BME280;18639;50.716;7.086;2023-02-22T02:07:42;100229.69;;;5.14;100.00
32131;BME280;18639;50.716;7.086;2023-02-22T02:10:13;100207.47;;;4.96;100.00
32131;BME280;18639;50.716;7.086;2023-02-22T02:12:42;100218.97;;;5.06;100.00
32131;BME280;18639;50.716;7.086;2023-02-22T02:15:26;100228.22;;;5.08;100.00
32131;BME280;18639;50.716;7.086;2023-02-22T02:18:01;100226.75;;;5.03;100.00
32131;BME280;18639;50.716;7.086;2023-02-22T02:34:49;100207.88;;;5.05;100.00
32131;BME280;18639;50.716;7.086;2023-02-22T02:37:36;100219.66;;;5.09;100.00
32131;BME280;18639;50.716;7.086;2023-02-22T02:40:11;100212.22;;;5.03;100.00
32131;BME280;18639;50.716;7.086;2023-02-22T02:43:03;100204.97;;;4.94;100.00
32131;BME280;18639;50.716;7.086;2023-02-22T02:45:52;100217.72;;;4.96;100.00
32131;BME280;18639;50.716;7.086;2023-02-22T02:48:24;100209.31;;;4.92;100.00
32131;BME280;18639;50.716;7.086;2023-02-22T02:50:51;100199.28;;;4.88;100.00
32131;BME280;18639;50.716;7.086;2023-02-22T02:53:21;100206.06;;;4.89;100.00
32131;BME280;18639;50.716;7.086;2023-02-22T02:55:48;100199.41;;;4.85;100.00
32131;BME280;18639;50.716;7.086;2023-02-22T02:58:20;100200.84;;;4.72;100.00
32131;BME280;18639;50.716;7.086;2023-02-22T03:00:46;100203.53;;;4.69;100.00
32131;BME280;18639;50.716;7.086;2023-02-22T03:03:37;100204.75;;;4.60;100.00
32131;BME280;18639;50.716;7.086;2023-02-22T03:06:23;100201.53;;;4.55;100.00
32131;BME280;18639;50.716;7.086;2023-02-22T03:11:20;100200.22;;;4.46;100.00
32131;BME280;18639;50.716;7.086;2023-02-22T03:13:52;100199.44;;;4.44;100.00
32131;BME280;18639;50.716;7.086;2023-02-22T03:16:29;100202.19;;;4.40;100.00
32131;BME280;18639;50.716;7.086;2023-02-22T03:19:09;100185.13;;;4.20;100.00
32131;BME280;18639;50.716;7.086;2023-02-22T03:22:00;100189.25;;;4.22;100.00
32131;BME280;18639;50.716;7.086;2023-02-22T03:24:48;100189.53;;;4.16;100.00
32131;BME280;18639;50.716;7.086;2023-02-22T03:27:27;100193.94;;;4.13;100.00
32131;BME280;18639;50.716;7.086;2023-02-22T03:30:01;100192.53;;;4.06;100.00
32131;BME280;18639;50.716;7.086;2023-02-22T03:32:32;100172.56;;;3.94;100.00
32131;BME280;18639;50.716;7.086;2023-02-22T03:35:05;100189.25;;;4.02;100.00
32131;BME280;18639;50.716;7.086;2023-02-22T03:37:34;100193.00;;;3.94;100.00
32131;BME280;18639;50.716;7.086;2023-02-22T03:40:04;100189.66;;;3.92;100.00
32131;BME280;18639;50.716;7.086;2023-02-22T03:42:40;100179.81;;;3.83;100.00
32131;BME280;18639;50.716;7.086;2023-02-22T03:45:08;100178.28;;;3.78;100.00
32131;BME280;18639;50.716;7.086;2023-02-22T03:47:40;100177.50;;;3.76;100.00
32131;BME280;18639;50.716;7.086;2023-02-22T03:50:24;100151.78;;;3.59;100.00
32131;BME280;18639;50.716;7.086;2023-02-22T03:52:53;100172.59;;;3.72;100.00
32131;BME280;18639;50.716;7.086;2023-02-22T03:55:20;100173.59;;;3.68;100.00
32131;BME280;18639;50.716;7.086;2023-02-22T03:57:49;100162.00;;;3.59;100.00
32131;BME280;18639;50.716;7.086;2023-02-22T04:00:19;100177.22;;;3.62;100.00
32131;BME280;18639;50.716;7.086;2023-02-22T04:02:46;100164.97;;;3.49;100.00
32131;BME280;18639;50.716;7.086;2023-02-22T04:05:11;100154.88;;;3.46;100.00
32131;BME280;18639;50.716;7.086;2023-02-22T04:07:38;100180.66;;;3.61;100.00
32131;BME280;18639;50.716;7.086;2023-02-22T04:10:04;100163.66;;;3.60;100.00
32131;BME280;18639;50.716;7.086;2023-02-22T04:12:33;100177.00;;;3.68;100.00
32131;BME280;18639;50.716;7.086;2023-02-22T04:14:58;100163.53;;;3.63;100.00
32131;BME280;18639;50.716;7.086;2023-02-22T04:17:23;100169.84;;;3.76;100.00
32131;BME280;18639;50.716;7.086;2023-02-22T04:19:49;100166.44;;;3.76;100.00
32131;BME280;18639;50.716;7.086;2023-02-22T04:22:15;100138.13;;;3.60;100.00
32131;BME280;18639;50.716;7.086;2023-02-22T04:24:41;100150.59;;;3.68;100.00
32131;BME280;18639;50.716;7.086;2023-02-22T04:27:06;100151.44;;;3.68;100.00
32131;BME280;18639;50.716;7.086;2023-02-22T04:29:31;100162.38;;;3.72;100.00
32131;BME280;18639;50.716;7.086;2023-02-22T04:31:57;100135.56;;;3.60;100.00
32131;BME280;18639;50.716;7.086;2023-02-22T04:34:22;100165.38;;;3.81;100.00
32131;BME280;18639;50.716;7.086;2023-02-22T04:36:47;100171.13;;;3.87;100.00
32131;BME280;18639;50.716;7.086;2023-02-22T04:39:12;100163.41;;;3.88;100.00
32131;BME280;18639;50.716;7.086;2023-02-22T04:41:38;100171.72;;;3.93;100.00
32131;BME280;18639;50.716;7.086;2023-02-22T04:44:03;100159.06;;;3.90;100.00
32131;BME280;18639;50.716;7.086;2023-02-22T04:46:28;100141.59;;;3.79;100.00
32131;BME280;18639;50.716;7.086;2023-02-22T04:48:55;100161.50;;;3.93;100.00
32131;BME280;18639;50.716;7.086;2023-02-22T04:51:21;100164.75;;;3.97;100.00
32131;BME280;18639;50.716;7.086;2023-02-22T04:53:47;100162.09;;;4.00;100.00
32131;BME280;18639;50.716;7.086;2023-02-22T04:56:12;100155.31;;;3.99;100.00
32131;BME280;18639;50.716;7.086;2023-02-22T04:58:37;100137.63;;;3.94;100.00
32131;BME280;18639;50.716;7.086;2023-02-22T05:01:03;100151.72;;;4.03;100.00
32131;BME280;18639;50.716;7.086;2023-02-22T05:03:28;100152.38;;;4.08;100.00
32131;BME280;18639;50.716;7.086;2023-02-22T05:05:53;100100.16;;;3.73;100.00
32131;BME280;18639;50.716;7.086;2023-02-22T05:08:18;100154.03;;;4.09;100.00
32131;BME280;18639;50.716;7.086;2023-02-22T05:10:44;100149.81;;;4.08;100.00
32131;BME280;18639;50.716;7.086;2023-02-22T05:13:10;100133.78;;;4.04;100.00
32131;BME280;18639;50.716;7.086;2023-02-22T05:15:35;100147.16;;;4.11;100.00
32131;BME280;18639;50.716;7.086;2023-02-22T05:18:00;100118.69;;;3.98;100.00
32131;BME280;18639;50.716;7.086;2023-02-22T05:20:28;100138.69;;;4.09;100.00
32131;BME280;18639;50.716;7.086;2023-02-22T05:22:55;100145.97;;;4.18;100.00
32131;BME280;18639;50.716;7.086;2023-02-22T05:25:21;100116.19;;;3.97;100.00
32131;BME280;18639;50.716;7.086;2023-02-22T05:27:57;100146.81;;;4.18;100.00
32131;BME280;18639;50.716;7.086;2023-02-22T05:30:28;100128.28;;;4.13;100.00
32131;BME280;18639;50.716;7.086;2023-02-22T05:32:54;100128.28;;;4.13;100.00
32131;BME280;18639;50.716;7.086;2023-02-22T05:35:21;100134.81;;;4.20;100.00
32131;BME280;18639;50.716;7.086;2023-02-22T05:37:47;100113.38;;;4.03;100.00
32131;BME280;18639;50.716;7.086;2023-02-22T05:40:13;100136.28;;;4.26;100.00
32131;BME280;18639;50.716;7.086;2023-02-22T05:42:39;100127.97;;;4.21;100.00
32131;BME280;18639;50.716;7.086;2023-02-22T05:45:05;100124.38;;;4.25;100.00
32131;BME280;18639;50.716;7.086;2023-02-22T05:47:30;100119.75;;;4.33;100.00
32131;BME280;18639;50.716;7.086;2023-02-22T05:49:56;100108.59;;;4.36;100.00
32131;BME280;18639;50.716;7.086;2023-02-22T05:52:21;100125.78;;;4.52;100.00
32131;BME280;18639;50.716;7.086;2023-02-22T05:54:46;100119.41;;;4.61;100.00
32131;BME280;18639;50.716;7.086;2023-02-22T05:57:11;100071.78;;;4.38;100.00
32131;BME280;18639;50.716;7.086;2023-02-22T05:59:37;100127.66;;;4.68;100.00
32131;BME280;18639;50.716;7.086;2023-02-22T06:02:02;100115.75;;;4.66;100.00
32131;BME280;18639;50.716;7.086;2023-02-22T06:04:27;100117.47;;;4.66;100.00
32131;BME280;18639;50.716;7.086;2023-02-22T06:06:52;100109.19;;;4.61;100.00
32131;BME280;18639;50.716;7.086;2023-02-22T06:09:18;100080.75;;;4.48;100.00
32131;BME280;18639;50.716;7.086;2023-02-22T06:11:43;100104.31;;;4.55;100.00
32131;BME280;18639;50.716;7.086;2023-02-22T06:14:08;100084.41;;;4.43;100.00
32131;BME280;18639;50.716;7.086;2023-02-22T06:16:34;100076.03;;;4.39;100.00
32131;BME280;18639;50.716;7.086;2023-02-22T06:18:59;100097.63;;;4.52;100.00
32131;BME280;18639;50.716;7.086;2023-02-22T06:21:25;100097.41;;;4.57;100.00
32131;BME280;18639;50.716;7.086;2023-02-22T06:23:51;100073.41;;;4.41;100.00
32131;BME280;18639;50.716;7.086;2023-02-22T06:26:17;100101.56;;;4.59;100.00
32131;BME280;18639;50.716;7.086;2023-02-22T06:28:45;100098.09;;;4.60;100.00
32131;BME280;18639;50.716;7.086;2023-02-22T06:31:11;100092.31;;;4.57;100.00
32131;BME280;18639;50.716;7.086;2023-02-22T06:33:36;100077.91;;;4.54;100.00
32131;BME280;18639;50.716;7.086;2023-02-22T06:36:01;100081.59;;;4.68;100.00
32131;BME280;18639;50.716;7.086;2023-02-22T06:38:26;100055.84;;;4.52;100.00
32131;BME280;18639;50.716;7.086;2023-02-22T06:40:53;100102.16;;;4.85;100.00
32131;BME280;18639;50.716;7.086;2023-02-22T06:43:20;100096.00;;;4.89;100.00
32131;BME280;18639;50.716;7.086;2023-02-22T06:45:45;100104.63;;;4.86;100.00
32131;BME280;18639;50.716;7.086;2023-02-22T06:48:11;100043.91;;;4.52;100.00
32131;BME280;18639;50.716;7.086;2023-02-22T06:50:36;100092.19;;;4.79;100.00
32131;BME280;18639;50.716;7.086;2023-02-22T06:53:02;100094.59;;;4.82;100.00
32131;BME280;18639;50.716;7.086;2023-02-22T06:55:29;100113.75;;;4.92;100.00
32131;BME280;18639;50.716;7.086;2023-02-22T06:57:55;100102.91;;;4.87;100.00
32131;BME280;18639;50.716;7.086;2023-02-22T07:00:23;100110.19;;;4.96;100.00
32131;BME280;18639;50.716;7.086;2023-02-22T07:02:50;100086.91;;;4.82;100.00
32131;BME280;18639;50.716;7.086;2023-02-22T07:05:18;100092.75;;;4.85;100.00
32131;BME280;18639;50.716;7.086;2023-02-22T07:07:44;100101.78;;;4.92;100.00
32131;BME280;18639;50.716;7.086;2023-02-22T07:10:25;100087.69;;;4.84;100.00
32131;BME280;18639;50.716;7.086;2023-02-22T07:12:51;100095.09;;;4.90;100.00
32131;BME280;18639;50.716;7.086;2023-02-22T07:15:20;100114.72;;;5.08;100.00
32131;BME280;18639;50.716;7.086;2023-02-22T07:17:46;100106.19;;;5.07;100.00
32131;BME280;18639;50.716;7.086;2023-02-22T07:20:12;100107.88;;;5.08;100.00
32131;BME280;18639;50.716;7.086;2023-02-22T07:22:38;100102.84;;;5.07;100.00
32131;BME280;18639;50.716;7.086;2023-02-22T07:25:08;100115.28;;;5.15;100.00
32131;BME280;18639;50.716;7.086;2023-02-22T07:27:38;100113.50;;;5.17;100.00
32131;BME280;18639;50.716;7.086;2023-02-22T07:30:05;100115.69;;;5.24;100.00
32131;BME280;18639;50.716;7.086;2023-02-22T07:32:33;100103.19;;;5.18;100.00
32131;BME280;18639;50.716;7.086;2023-02-22T07:34:58;100107.66;;;5.32;100.00
32131;BME280;18639;50.716;7.086;2023-02-22T07:37:26;100098.06;;;5.35;100.00
32131;BME280;18639;50.716;7.086;2023-02-22T07:39:51;100101.41;;;5.37;100.00
32131;BME280;18639;50.716;7.086;2023-02-22T07:42:19;100081.03;;;5.34;100.00
32131;BME280;18639;50.716;7.086;2023-02-22T07:44:47;100097.34;;;5.50;100.00
32131;BME280;18639;50.716;7.086;2023-02-22T07:47:13;100098.59;;;5.61;100.00
32131;BME280;18639;50.716;7.086;2023-02-22T07:49:38;100089.97;;;5.62;100.00
32131;BME280;18639;50.716;7.086;2023-02-22T07:52:04;100072.13;;;5.60;100.00
32131;BME280;18639;50.716;7.086;2023-02-22T07:54:30;100101.91;;;5.80;100.00
32131;BME280;18639;50.716;7.086;2023-02-22T07:56:55;100090.66;;;5.82;100.00
32131;BME280;18639;50.716;7.086;2023-02-22T07:59:20;100094.38;;;5.94;100.00
32131;BME280;18639;50.716;7.086;2023-02-22T08:01:48;100100.50;;;6.09;100.00
32131;BME280;18639;50.716;7.086;2023-02-22T08:04:13;100081.56;;;6.11;100.00
32131;BME280;18639;50.716;7.086;2023-02-22T08:06:39;100090.91;;;6.29;100.00
32131;BME280;18639;50.716;7.086;2023-02-22T08:09:04;100059.56;;;6.40;100.00
32131;BME280;18639;50.716;7.086;2023-02-22T08:11:29;100077.81;;;6.67;100.00
32131;BME280;18639;50.716;7.086;2023-02-22T08:13:58;100080.97;;;6.88;100.00
32131;BME280;18639;50.716;7.086;2023-02-22T08:16:23;100083.88;;;7.13;100.00
32131;BME280;18639;50.716;7.086;2023-02-22T08:18:48;100066.63;;;7.31;100.00
32131;BME280;18639;50.716;7.086;2023-02-22T08:21:15;100076.56;;;7.67;100.00
32131;BME280;18639;50.716;7.086;2023-02-22T08:23:40;100069.38;;;7.87;100.00
32131;BME280;18639;50.716;7.086;2023-02-22T08:26:07;100065.75;;;8.20;100.00
32131;BME280;18639;50.716;7.086;2023-02-22T08:28:33;100056.22;;;8.36;100.00
32131;BME280;18639;50.716;7.086;2023-02-22T08:30:58;100054.47;;;8.51;100.00
32131;BME280;18639;50.716;7.086;2023-02-22T08:33:23;100065.03;;;8.74;100.00
32131;BME280;18639;50.716;7.086;2023-02-22T08:35:49;100050.13;;;8.79;100.00
32131;BME280;18639;50.716;7.086;2023-02-22T08:38:24;100010.47;;;8.68;100.00
32131;BME280;18639;50.716;7.086;2023-02-22T08:40:50;100045.63;;;9.10;100.00
32131;BME280;18639;50.716;7.086;2023-02-22T08:43:17;100059.53;;;9.34;100.00
32131;BME280;18639;50.716;7.086;2023-02-22T08:45:43;100045.59;;;9.37;100.00
32131;BME280;18639;50.716;7.086;2023-02-22T08:48:09;100048.13;;;9.51;100.00
32131;BME280;18639;50.716;7.086;2023-02-22T08:50:34;100049.81;;;9.64;100.00
32131;BME280;18639;50.716;7.086;2023-02-22T08:53:03;100053.44;;;9.75;100.00
32131;BME280;18639;50.716;7.086;2023-02-22T08:55:34;100037.56;;;9.81;100.00
32131;BME280;18639;50.716;7.086;2023-02-22T08:58:00;100042.00;;;10.04;100.00
32131;BME280;18639;50.716;7.086;2023-02-22T09:00:28;100037.88;;;10.39;100.00
32131;BME280;18639;50.716;7.086;2023-02-22T09:02:57;100029.31;;;10.75;100.00
32131;BME280;18639;50.716;7.086;2023-02-22T09:05:22;100048.03;;;11.15;100.00
32131;BME280;18639;50.716;7.086;2023-02-22T09:07:47;100039.69;;;11.47;100.00
32131;BME280;18639;50.716;7.086;2023-02-22T09:10:16;100040.41;;;11.84;100.00
32131;BME280;18639;50.716;7.086;2023-02-22T09:12:42;100021.63;;;12.04;100.00
32131;BME280;18639;50.716;7.086;2023-02-22T09:15:09;100008.78;;;12.24;97.11
32131;BME280;18639;50.716;7.086;2023-02-22T09:17:34;100036.31;;;12.92;96.87
32131;BME280;18639;50.716;7.086;2023-02-22T09:20:05;100034.38;;;13.48;93.73
32131;BME280;18639;50.716;7.086;2023-02-22T09:22:31;100028.56;;;13.77;88.89
32131;BME280;18639;50.716;7.086;2023-02-22T09:24:56;100020.03;;;13.96;84.96
32131;BME280;18639;50.716;7.086;2023-02-22T09:27:21;100025.88;;;14.39;84.06
32131;BME280;18639;50.716;7.086;2023-02-22T09:29:47;100012.53;;;14.53;80.94
32131;BME280;18639;50.716;7.086;2023-02-22T09:32:13;100023.13;;;14.81;78.48
32131;BME280;18639;50.716;7.086;2023-02-22T09:34:42;100021.66;;;15.07;76.56
32131;BME280;18639;50.716;7.086;2023-02-22T09:37:10;99997.28;;;14.89;77.74
32131;BME280;18639;50.716;7.086;2023-02-22T09:39:35;100001.06;;;14.65;73.94
32131;BME280;18639;50.716;7.086;2023-02-22T09:42:08;100013.94;;;14.57;76.32
32131;BME280;18639;50.716;7.086;2023-02-22T09:47:38;100001.00;;;13.85;76.87
32131;BME280;18639;50.716;7.086;2023-02-22T09:50:20;100002.06;;;14.04;77.15
32131;BME280;18639;50.716;7.086;2023-02-22T09:58:01;100005.59;;;14.33;74.52
32131;BME280;18639;50.716;7.086;2023-02-22T10:00:31;100012.28;;;14.66;72.10
32131;BME280;18639;50.716;7.086;2023-02-22T10:03:16;100018.09;;;14.89;73.42
32131;BME280;18639;50.716;7.086;2023-02-22T10:05:59;100009.88;;;15.03;72.03
32131;BME280;18639;50.716;7.086;2023-02-22T10:08:29;100006.59;;;14.91;67.80
32131;BME280;18639;50.716;7.086;2023-02-22T10:14:42;100011.41;;;15.15;65.87
32131;BME280;18639;50.716;7.086;2023-02-22T10:17:17;100017.69;;;14.93;67.21
32131;BME280;18639;50.716;7.086;2023-02-22T10:22:34;100005.84;;;14.60;66.50
32131;BME280;18639;50.716;7.086;2023-02-22T10:25:08;100007.88;;;14.47;68.09
32131;BME280;18639;50.716;7.086;2023-02-22T10:27:40;100013.31;;;14.44;68.66
32131;BME280;18639;50.716;7.086;2023-02-22T10:30:15;100002.25;;;14.42;69.62
32131;BME280;18639;50.716;7.086;2023-02-22T10:32:46;99992.81;;;14.41;69.77
32131;BME280;18639;50.716;7.086;2023-02-22T10:35:19;99985.41;;;14.46;70.45
32131;BME280;18639;50.716;7.086;2023-02-22T10:37:45;99997.13;;;14.31;68.95
32131;BME280;18639;50.716;7.086;2023-02-22T10:40:13;100002.13;;;14.23;70.61
32131;BME280;18639;50.716;7.086;2023-02-22T10:42:41;100004.59;;;13.94;71.12
32131;BME280;18639;50.716;7.086;2023-02-22T10:47:42;100003.00;;;14.03;70.88
32131;BME280;18639;50.716;7.086;2023-02-22T10:50:11;100000.91;;;13.97;71.86
32131;BME280;18639;50.716;7.086;2023-02-22T10:52:38;99975.91;;;13.75;73.09
32131;BME280;18639;50.716;7.086;2023-02-22T10:55:04;99981.81;;;13.77;74.00
32131;BME280;18639;50.716;7.086;2023-02-22T10:57:36;99980.63;;;13.60;74.45
32131;BME280;18639;50.716;7.086;2023-02-22T11:00:21;99981.00;;;13.56;74.85
32131;BME280;18639;50.716;7.086;2023-02-22T11:03:01;99965.38;;;13.46;75.56
32131;BME280;18639;50.716;7.086;2023-02-22T11:05:37;99979.84;;;13.48;75.12
32131;BME280;18639;50.716;7.086;2023-02-22T11:08:26;99968.47;;;13.08;74.73
32131;BME280;18639;50.716;7.086;2023-02-22T11:11:01;99967.19;;;13.14;75.13
32131;BME280;18639;50.716;7.086;2023-02-22T11:13:31;99976.84;;;13.12;73.72
32131;BME280;18639;50.716;7.086;2023-02-22T11:15:59;99973.38;;;13.11;75.30
32131;BME280;18639;50.716;7.086;2023-02-22T11:18:30;99953.72;;;13.08;74.34
32131;BME280;18639;50.716;7.086;2023-02-22T11:21:01;99963.59;;;13.15;74.69
32131;BME280;18639;50.716;7.086;2023-02-22T11:23:27;99963.38;;;13.06;74.37
32131;BME280;18639;50.716;7.086;2023-02-22T11:26:11;99971.66;;;13.12;75.54
32131;BME280;18639;50.716;7.086;2023-02-22T11:28:41;99929.34;;;13.00;75.65
32131;BME280;18639;50.716;7.086;2023-02-22T11:31:22;99934.41;;;13.01;75.24
32131;BME280;18639;50.716;7.086;2023-02-22T11:36:40;99949.25;;;12.99;74.38
32131;BME280;18639;50.716;7.086;2023-02-22T11:39:24;99935.84;;;12.94;75.86
32131;BME280;18639;50.716;7.086;2023-02-22T11:41:50;99942.56;;;12.97;75.88
32131;BME280;18639;50.716;7.086;2023-02-22T11:44:35;99842.03;;;12.37;76.25
32131;BME280;18639;50.716;7.086;2023-02-22T11:47:01;99834.63;;;12.32;74.83
32131;BME280;18639;50.716;7.086;2023-02-22T11:49:42;99930.31;;;12.88;75.39
32131;BME280;18639;50.716;7.086;2023-02-22T11:52:30;99918.81;;;12.81;75.57
32131;BME280;18639;50.716;7.086;2023-02-22T11:55:26;99925.06;;;12.78;76.36
32131;BME280;18639;50.716;7.086;2023-02-22T12:00:54;99915.59;;;12.88;77.53
32131;BME280;18639;50.716;7.086;2023-02-22T12:03:54;99912.13;;;12.99;77.70
32131;BME280;18639;50.716;7.086;2023-02-22T12:06:39;99887.28;;;12.96;77.39
32131;BME280;18639;50.716;7.086;2023-02-22T12:09:32;99905.84;;;13.13;75.92
32131;BME280;18639;50.716;7.086;2023-02-22T12:12:07;99901.44;;;13.24;76.28
32131;BME280;18639;50.716;7.086;2023-02-22T12:14:46;99909.19;;;13.45;76.51
32131;BME280;18639;50.716;7.086;2023-02-22T12:20:19;99891.94;;;13.65;75.57
32131;BME280;18639;50.716;7.086;2023-02-22T12:25:56;99885.41;;;13.70;73.38
32131;BME280;18639;50.716;7.086;2023-02-22T12:28:32;99878.66;;;13.88;74.37
32131;BME280;18639;50.716;7.086;2023-02-22T12:31:05;99899.31;;;14.00;73.07
32131;BME280;18639;50.716;7.086;2023-02-22T12:33:42;99891.00;;;14.06;72.95
32131;BME280;18639;50.716;7.086;2023-02-22T12:36:13;99886.88;;;13.94;72.49
32131;BME280;18639;50.716;7.086;2023-02-22T12:38:42;99853.31;;;13.71;73.62
32131;BME280;18639;50.716;7.086;2023-02-22T12:41:27;99885.66;;;13.98;74.14
32131;BME280;18639;50.716;7.086;2023-02-22T12:44:05;99891.69;;;14.08;74.62
32131;BME280;18639;50.716;7.086;2023-02-22T12:46:39;99891.59;;;14.19;75.72
32131;BME280;18639;50.716;7.086;2023-02-22T12:49:13;99883.53;;;14.22;75.52
32131;BME280;18639;50.716;7.086;2023-02-22T12:54:47;99877.19;;;14.05;70.77
32131;BME280;18639;50.716;7.086;2023-02-22T12:57:24;99896.13;;;14.26;71.53
32131;BME280;18639;50.716;7.086;2023-02-22T12:59:55;99852.59;;;14.09;72.65
32131;BME280;18639;50.716;7.086;2023-02-22T13:03:16;99883.69;;;14.20;72.15
32131;BME280;18639;50.716;7.086;2023-02-22T13:05:16;99856.44;;;14.15;72.98
32131;BME280;18639;50.716;7.086;2023-02-22T13:12:59;99882.47;;;14.34;72.09
32131;BME280;18639;50.716;7.086;2023-02-22T13:20:49;99888.19;;;14.28;74.96
32131;BME280;18639;50.716;7.086;2023-02-22T13:24:05;99885.69;;;14.17;73.57
32131;BME280;18639;50.716;7.086;2023-02-22T13:28:40;99862.16;;;14.09;73.49
32131;BME280;18639;50.716;7.086;2023-02-22T13:42:45;99869.78;;;14.60;72.18
32131;BME280;18639;50.716;7.086;2023-02-22T13:48:33;99860.22;;;14.60;72.49
32131;BME280;18639;50.716;7.086;2023-02-22T13:51:06;99862.16;;;14.68;73.03
32131;BME280;18639;50.716;7.086;2023-02-22T13:56:13;99849.41;;;14.65;71.79
32131;BME280;18639;50.716;7.086;2023-02-22T13:59:00;99834.88;;;14.43;71.75
32131;BME280;18639;50.716;7.086;2023-02-22T14:01:46;99858.97;;;14.64;71.99
32131;BME280;18639;50.716;7.086;2023-02-22T14:06:58;99848.88;;;14.42;74.05
32131;BME280;18639;50.716;7.086;2023-02-22T14:17:59;99850.44;;;14.33;77.00
32131;BME280;18639;50.716;7.086;2023-02-22T14:20:28;99857.00;;;14.28;77.66
32131;BME280;18639;50.716;7.086;2023-02-22T14:23:25;99856.75;;;14.31;78.08
32131;BME280;18639;50.716;7.086;2023-02-22T14:25:54;99848.13;;;14.21;78.74
32131;BME280;18639;50.716;7.086;2023-02-22T14:28:40;99862.31;;;14.26;79.55
32131;BME280;18639;50.716;7.086;2023-02-22T14:33:54;99866.13;;;14.13;81.00
32131;BME280;18639;50.716;7.086;2023-02-22T14:36:23;99852.56;;;14.00;81.18
32131;BME280;18639;50.716;7.086;2023-02-22T14:38:50;99865.44;;;14.11;81.41
32131;BME280;18639;50.716;7.086;2023-02-22T14:41:20;99869.03;;;14.10;81.66